createdAt,value
2023-03-30T00:00:57.697Z,42.56
2023-03-30T00:03:27.233Z,42.72
2023-03-30T00:05:57.727Z,43.20
2023-03-30T00:08:28.837Z,43.50
2023-03-30T00:11:06.724Z,43.28
2023-03-30T00:13:35.436Z,43.18
2023-03-30T00:16:02.974Z,43.42
2023-03-30T00:18:33.957Z,43.55
2023-03-30T00:21:03.320Z,43.90
2023-03-30T00:23:30.096Z,43.48
2023-03-30T00:25:56.744Z,43.59
2023-03-30T00:28:24.038Z,43.82
2023-03-30T00:30:52.874Z,43.78
2023-03-30T00:33:27.502Z,44.01
2023-03-30T00:36:00.513Z,43.86
2023-03-30T00:38:27.229Z,44.35
2023-03-30T00:40:55.999Z,44.29
2023-03-30T00:43:22.755Z,44.32
2023-03-30T00:45:49.314Z,44.56
2023-03-30T00:48:22.776Z,44.09
2023-03-30T00:50:53.221Z,44.63
2023-03-30T00:53:30.407Z,44.69
2023-03-30T00:55:57.930Z,44.65
2023-03-30T00:58:26.394Z,44.44
2023-03-30T01:00:53.146Z,44.63
2023-03-30T01:03:24.248Z,44.92
2023-03-30T01:05:52.231Z,44.97
2023-03-30T01:08:20.094Z,44.84
2023-03-30T01:10:46.645Z,44.91
2023-03-30T01:13:14.147Z,45.43
2023-03-30T01:16:11.066Z,45.23
2023-03-30T01:18:48.430Z,45.85
2023-03-30T01:21:34.149Z,45.85
2023-03-30T01:24:35.295Z,45.86
2023-03-30T01:27:20.024Z,45.77
2023-03-30T01:30:21.921Z,46.47
2023-03-30T01:32:56.194Z,46.37
2023-03-30T01:35:36.659Z,46.47
2023-03-30T01:38:08.969Z,46.24
2023-03-30T01:41:06.501Z,46.52
2023-03-30T01:43:45.037Z,46.47
2023-03-30T01:46:25.067Z,46.95
2023-03-30T01:49:05.858Z,47.10
2023-03-30T01:51:45.940Z,47.13
2023-03-30T01:54:22.672Z,47.23
2023-03-30T01:56:56.843Z,47.18
2023-03-30T01:59:31.483Z,47.20
2023-03-30T02:02:04.284Z,47.31
2023-03-30T02:04:34.860Z,47.63
2023-03-30T02:07:06.505Z,47.97
2023-03-30T02:09:33.980Z,47.45
2023-03-30T02:12:00.755Z,47.65
2023-03-30T02:14:31.160Z,47.82
2023-03-30T02:17:06.610Z,47.79
2023-03-30T02:19:33.947Z,48.23
2023-03-30T02:22:01.223Z,48.31
2023-03-30T02:24:28.853Z,48.20
2023-03-30T02:26:55.513Z,48.89
2023-03-30T02:29:22.848Z,48.82
2023-03-30T02:31:51.159Z,48.75
2023-03-30T02:34:30.009Z,48.60
2023-03-30T02:37:24.231Z,48.54
2023-03-30T02:39:55.596Z,48.72
2023-03-30T02:42:51.486Z,48.81
2023-03-30T02:45:39.546Z,49.21
2023-03-30T02:48:27.190Z,49.40
2023-03-30T02:51:22.992Z,49.07
2023-03-30T02:54:29.726Z,49.18
2023-03-30T02:57:08.271Z,49.40
2023-03-30T02:59:38.081Z,49.67
2023-03-30T03:02:14.299Z,49.45
2023-03-30T03:04:43.656Z,49.36
2023-03-30T03:07:11.999Z,49.47
2023-03-30T03:09:38.528Z,50.05
2023-03-30T03:12:05.282Z,49.77
2023-03-30T03:14:31.769Z,49.73
2023-03-30T03:16:58.323Z,50.17
2023-03-30T03:19:24.868Z,50.18
2023-03-30T03:21:51.780Z,49.93
2023-03-30T03:24:18.960Z,50.58
2023-03-30T03:26:46.028Z,50.59
2023-03-30T03:29:12.494Z,50.50
2023-03-30T03:31:39.161Z,51.07
2023-03-30T03:34:05.999Z,51.33
2023-03-30T03:36:32.524Z,50.97
2023-03-30T03:38:59.071Z,51.13
2023-03-30T03:41:26.283Z,51.91
2023-03-30T03:43:52.784Z,52.02
2023-03-30T03:46:19.305Z,51.77
2023-03-30T03:48:46.289Z,52.08
2023-03-30T03:51:12.808Z,51.99
2023-03-30T03:53:39.275Z,52.03
2023-03-30T03:56:06.027Z,52.27
2023-03-30T03:58:32.650Z,52.23
2023-03-30T04:01:00.915Z,52.12
2023-03-30T04:03:28.109Z,51.95
2023-03-30T04:05:58.497Z,52.13
2023-03-30T04:08:25.747Z,51.92
2023-03-30T04:10:52.178Z,51.84
2023-03-30T04:13:18.664Z,51.81
2023-03-30T04:15:45.336Z,52.17
2023-03-30T04:18:11.828Z,52.36
2023-03-30T04:20:38.388Z,52.23
2023-03-30T04:23:04.869Z,51.90
2023-03-30T04:25:31.340Z,52.49
2023-03-30T04:27:57.842Z,52.46
2023-03-30T04:30:24.484Z,52.31
2023-03-30T04:33:17.070Z,52.41
2023-03-30T04:35:43.615Z,52.53
2023-03-30T04:38:10.276Z,52.70
2023-03-30T04:40:36.864Z,52.05
2023-03-30T04:43:07.160Z,52.16
2023-03-30T04:45:33.721Z,52.46
2023-03-30T04:48:00.625Z,52.65
2023-03-30T04:50:27.322Z,52.57
2023-03-30T04:52:53.909Z,52.74
2023-03-30T04:55:20.432Z,52.97
2023-03-30T04:57:47.100Z,52.51
2023-03-30T05:00:14.363Z,52.47
2023-03-30T05:02:41.074Z,52.72
2023-03-30T05:05:08.118Z,52.80
2023-03-30T05:07:34.743Z,52.61
2023-03-30T05:10:01.444Z,52.91
2023-03-30T05:12:27.927Z,52.86
2023-03-30T05:14:54.433Z,52.61
2023-03-30T05:17:20.982Z,52.43
2023-03-30T05:19:47.889Z,52.48
2023-03-30T05:22:15.540Z,52.36
2023-03-30T05:24:42.127Z,52.82
2023-03-30T05:27:08.731Z,52.84
2023-03-30T05:29:35.605Z,53.08
2023-03-30T05:32:03.642Z,53.45
2023-03-30T05:34:30.582Z,53.50
2023-03-30T05:36:57.274Z,53.08
2023-03-30T05:39:23.945Z,53.03
2023-03-30T05:41:50.900Z,53.21
2023-03-30T05:44:19.985Z,54.14
2023-03-30T05:46:48.021Z,53.40
2023-03-30T05:49:14.824Z,53.42
2023-03-30T05:51:41.443Z,53.70
2023-03-30T05:54:11.348Z,53.59
2023-03-30T05:56:38.102Z,52.90
2023-03-30T05:59:05.275Z,53.29
2023-03-30T06:01:31.982Z,53.20
2023-03-30T06:03:59.517Z,52.89
2023-03-30T06:06:27.205Z,53.76
2023-03-30T06:08:53.733Z,53.62
2023-03-30T06:11:20.401Z,53.04
2023-03-30T06:13:46.960Z,53.55
2023-03-30T06:16:13.522Z,53.83
2023-03-30T06:18:40.103Z,53.23
2023-03-30T06:21:07.385Z,53.27
2023-03-30T06:23:35.862Z,53.15
2023-03-30T06:26:03.044Z,53.30
2023-03-30T06:28:29.908Z,52.27
2023-03-30T06:30:56.637Z,52.03
2023-03-30T06:33:23.347Z,51.07
2023-03-30T06:35:51.456Z,50.48
2023-03-30T06:38:19.156Z,49.91
2023-03-30T06:40:46.031Z,50.19
2023-03-30T06:43:18.610Z,49.35
2023-03-30T06:45:57.324Z,49.46
2023-03-30T06:48:24.770Z,49.81
2023-03-30T06:50:52.519Z,50.30
2023-03-30T06:53:20.024Z,50.10
2023-03-30T06:55:54.549Z,49.71
2023-03-30T06:58:21.671Z,49.32
2023-03-30T07:00:48.255Z,49.78
2023-03-30T07:03:19.056Z,49.99
2023-03-30T07:05:49.568Z,50.46
2023-03-30T07:08:17.141Z,50.11
2023-03-30T07:10:43.737Z,50.50
2023-03-30T07:13:10.369Z,50.62
2023-03-30T07:15:36.995Z,50.65
2023-03-30T07:18:04.709Z,50.35
2023-03-30T07:20:31.568Z,50.42
2023-03-30T07:22:58.189Z,50.48
2023-03-30T07:25:24.859Z,51.20
2023-03-30T07:27:51.495Z,50.98
2023-03-30T07:30:21.950Z,50.53
2023-03-30T07:32:54.351Z,50.56
2023-03-30T07:35:22.709Z,50.69
2023-03-30T07:37:50.957Z,50.56
2023-03-30T07:40:18.709Z,50.29
2023-03-30T07:42:45.518Z,50.49
2023-03-30T07:45:14.815Z,50.38
2023-03-30T07:47:42.965Z,50.64
2023-03-30T07:50:10.327Z,49.86
2023-03-30T07:52:37.820Z,50.34
2023-03-30T07:55:05.024Z,50.05
2023-03-30T07:57:32.093Z,50.16
2023-03-30T07:59:58.787Z,50.06
2023-03-30T08:02:25.664Z,49.90
2023-03-30T08:04:53.206Z,49.85
2023-03-30T08:07:19.934Z,49.68
2023-03-30T08:09:46.607Z,48.94
2023-03-30T08:12:13.080Z,48.65
2023-03-30T08:14:39.586Z,48.85
2023-03-30T08:17:06.618Z,48.67
2023-03-30T08:19:33.116Z,48.94
2023-03-30T08:22:01.800Z,48.85
2023-03-30T08:24:28.363Z,48.96
2023-03-30T08:26:55.003Z,48.81
2023-03-30T08:29:21.692Z,48.97
2023-03-30T08:31:48.472Z,49.45
2023-03-30T08:34:15.315Z,49.91
2023-03-30T08:36:42.808Z,49.93
2023-03-30T08:39:10.747Z,50.49
2023-03-30T08:41:49.036Z,49.98
2023-03-30T08:44:31.145Z,50.20
2023-03-30T08:46:58.807Z,50.20
2023-03-30T08:49:26.732Z,49.94
2023-03-30T08:51:54.965Z,50.38
2023-03-30T08:54:22.792Z,50.15
2023-03-30T08:57:01.089Z,50.44
2023-03-30T08:59:33.591Z,50.86
2023-03-30T09:02:04.345Z,51.20
2023-03-30T09:04:57.781Z,51.07
2023-03-30T09:07:25.822Z,50.92
2023-03-30T09:09:52.555Z,51.07
2023-03-30T09:12:37.939Z,51.90
2023-03-30T09:15:20.270Z,52.33
2023-03-30T09:18:04.528Z,52.00
2023-03-30T09:20:33.436Z,51.59
2023-03-30T09:23:02.399Z,51.59
2023-03-30T09:25:32.508Z,51.81
2023-03-30T09:28:03.607Z,51.22
2023-03-30T09:30:40.014Z,50.94
2023-03-30T09:33:14.675Z,50.48
2023-03-30T09:35:44.759Z,50.25
2023-03-30T09:38:13.273Z,49.45
2023-03-30T09:41:01.088Z,49.27
2023-03-30T09:43:37.590Z,49.80
2023-03-30T09:46:08.087Z,50.01
2023-03-30T09:48:46.032Z,49.43
2023-03-30T09:51:30.522Z,49.29
2023-03-30T09:54:04.440Z,48.39
2023-03-30T09:56:47.124Z,48.12
2023-03-30T09:59:32.587Z,48.13
2023-03-30T10:02:16.563Z,48.11
2023-03-30T10:04:52.919Z,48.04
2023-03-30T10:07:35.260Z,46.87
2023-03-30T10:10:36.100Z,47.28
2023-03-30T10:13:14.915Z,47.01
2023-03-30T10:15:44.259Z,46.52
2023-03-30T10:18:43.039Z,45.77
2023-03-30T10:21:19.364Z,46.44
2023-03-30T10:23:59.691Z,46.18
2023-03-30T10:26:28.408Z,45.91
2023-03-30T10:28:57.135Z,44.81
2023-03-30T10:31:27.906Z,44.53
2023-03-30T10:34:00.005Z,45.01
2023-03-30T10:36:33.471Z,45.07
2023-03-30T10:39:12.882Z,44.87
2023-03-30T10:41:40.858Z,44.30
2023-03-30T10:44:18.773Z,44.66
2023-03-30T10:46:45.770Z,44.20
2023-03-30T10:49:39.702Z,44.73
2023-03-30T10:52:12.525Z,44.09
2023-03-30T10:54:45.977Z,43.58
2023-03-30T10:57:20.763Z,43.80
2023-03-30T11:00:18.252Z,43.92
2023-03-30T11:03:29.639Z,43.69
2023-03-30T11:06:24.285Z,43.73
2023-03-30T11:08:52.964Z,43.79
2023-03-30T11:11:24.086Z,43.99
2023-03-30T11:13:57.882Z,44.46
2023-03-30T11:16:45.775Z,44.79
2023-03-30T11:19:20.917Z,44.74
2023-03-30T11:21:58.231Z,44.78
2023-03-30T11:24:27.897Z,44.67
2023-03-30T11:27:17.484Z,44.19
2023-03-30T11:30:14.415Z,43.94
2023-03-30T11:33:17.954Z,44.67
2023-03-30T11:35:51.638Z,44.95
2023-03-30T11:38:19.666Z,44.56
2023-03-30T11:40:52.083Z,44.98
2023-03-30T11:43:20.404Z,44.34
2023-03-30T11:46:04.014Z,43.87
2023-03-30T11:48:46.557Z,43.73
2023-03-30T11:51:52.756Z,43.59
2023-03-30T11:54:31.147Z,43.07
2023-03-30T11:57:45.730Z,43.10
2023-03-30T12:00:34.564Z,43.15
2023-03-30T12:03:16.434Z,42.48
2023-03-30T12:05:48.982Z,42.81
2023-03-30T12:08:31.028Z,42.51
2023-03-30T12:11:07.401Z,42.68
2023-03-30T12:13:48.394Z,41.38
2023-03-30T12:16:28.039Z,41.11
2023-03-30T12:19:10.028Z,41.14
2023-03-30T12:21:41.984Z,41.38
2023-03-30T12:24:23.679Z,42.29
2023-03-30T12:27:04.483Z,41.55
2023-03-30T12:32:31.252Z,41.15
2023-03-30T12:34:58.860Z,40.96
2023-03-30T12:37:29.089Z,40.73
2023-03-30T12:39:57.994Z,40.35
2023-03-30T12:42:26.665Z,40.97
2023-03-30T12:45:21.372Z,40.87
2023-03-30T12:48:03.383Z,41.39
2023-03-30T12:50:45.082Z,42.54
2023-03-30T12:53:14.438Z,43.39
2023-03-30T12:55:48.012Z,42.59
2023-03-30T12:59:05.193Z,43.31
2023-03-30T13:01:56.639Z,43.80
2023-03-30T13:04:25.567Z,43.49
2023-03-30T13:06:56.530Z,43.51
2023-03-30T13:09:26.253Z,43.65
2023-03-30T13:11:52.949Z,43.63
2023-03-30T13:14:28.416Z,44.48
2023-03-30T13:16:55.029Z,44.53
2023-03-30T13:19:27.594Z,44.35
2023-03-30T13:22:17.894Z,44.26
2023-03-30T13:24:57.840Z,43.99
2023-03-30T13:27:26.177Z,44.03
2023-03-30T13:29:56.693Z,44.17
2023-03-30T13:32:38.237Z,44.50
2023-03-30T13:35:25.312Z,44.81
2023-03-30T13:38:13.383Z,44.22
2023-03-30T13:40:54.346Z,44.72
2023-03-30T13:43:42.977Z,44.61
2023-03-30T13:46:37.385Z,44.21
2023-03-30T13:49:28.656Z,44.56
2023-03-30T13:52:01.806Z,45.48
2023-03-30T13:54:31.331Z,45.74
2023-03-30T13:57:38.914Z,46.42
2023-03-30T14:00:08.983Z,46.70
2023-03-30T14:02:39.245Z,46.91
2023-03-30T14:05:20.618Z,46.99
2023-03-30T14:07:47.568Z,47.43
2023-03-30T14:10:16.998Z,47.65
2023-03-30T14:12:44.389Z,48.29
2023-03-30T14:15:33.911Z,48.23
2023-03-30T14:18:02.014Z,48.26
2023-03-30T14:20:48.763Z,48.22
2023-03-30T14:23:31.605Z,48.80
2023-03-30T14:26:06.526Z,48.52
2023-03-30T14:28:38.366Z,48.57
2023-03-30T14:31:16.039Z,48.66
2023-03-30T14:33:43.084Z,48.31
2023-03-30T14:36:12.534Z,49.15
2023-03-30T14:38:41.896Z,48.94
2023-03-30T14:41:16.969Z,49.40
2023-03-30T14:43:47.877Z,48.88
2023-03-30T14:46:14.462Z,49.14
2023-03-30T14:48:43.587Z,49.48
2023-03-30T14:51:27.785Z,48.88
2023-03-30T14:53:55.514Z,49.60
2023-03-30T14:56:22.795Z,49.16
2023-03-30T14:58:51.379Z,49.41
2023-03-30T15:01:26.247Z,49.85
2023-03-30T15:03:53.195Z,50.69
2023-03-30T15:06:24.530Z,50.58
2023-03-30T15:08:51.192Z,51.28
2023-03-30T15:11:26.076Z,52.13
2023-03-30T15:13:55.106Z,52.36
2023-03-30T15:16:27.937Z,52.42
2023-03-30T15:19:01.621Z,53.72
2023-03-30T15:21:30.660Z,54.70
2023-03-30T15:23:58.608Z,54.35
2023-03-30T15:26:27.183Z,54.62
2023-03-30T15:28:57.261Z,53.81
2023-03-30T15:31:24.340Z,54.21
2023-03-30T15:33:57.689Z,54.62
2023-03-30T15:36:25.739Z,54.83
2023-03-30T15:38:54.995Z,54.54
2023-03-30T15:41:24.122Z,55.37
2023-03-30T15:44:11.149Z,56.06
2023-03-30T15:46:38.179Z,55.80
2023-03-30T15:49:05.553Z,56.45
2023-03-30T15:51:37.936Z,56.52
2023-03-30T15:54:13.186Z,56.88
2023-03-30T15:57:01.914Z,57.19
2023-03-30T15:59:32.442Z,57.65
2023-03-30T16:02:04.857Z,57.86
2023-03-30T16:04:32.358Z,58.20
2023-03-30T16:06:59.150Z,58.84
2023-03-30T16:09:25.806Z,58.63
2023-03-30T16:11:52.616Z,58.83
2023-03-30T16:14:20.806Z,58.31
2023-03-30T16:16:48.068Z,59.08
2023-03-30T16:19:17.385Z,58.09
2023-03-30T16:21:45.432Z,57.82
2023-03-30T16:24:12.394Z,58.46
2023-03-30T16:26:40.543Z,57.78
2023-03-30T16:29:19.105Z,58.23
2023-03-30T16:31:46.026Z,57.69
2023-03-30T16:34:12.618Z,57.69
2023-03-30T16:36:39.262Z,58.33
2023-03-30T16:39:19.032Z,58.48
2023-03-30T16:41:49.726Z,58.81
2023-03-30T16:44:17.420Z,58.75
2023-03-30T16:46:44.540Z,59.31
2023-03-30T16:49:22.079Z,59.16
2023-03-30T16:51:49.078Z,59.49
2023-03-30T16:54:29.547Z,59.68
2023-03-30T16:56:57.660Z,59.87
2023-03-30T16:59:26.192Z,59.98
2023-03-30T17:01:52.867Z,59.93
2023-03-30T17:04:19.795Z,60.13
2023-03-30T17:06:46.527Z,59.92
2023-03-30T17:09:16.741Z,59.74
2023-03-30T17:11:47.597Z,59.92
2023-03-30T17:14:15.163Z,60.14
2023-03-30T17:16:41.951Z,59.94
2023-03-30T17:19:13.200Z,60.16
2023-03-30T17:21:42.728Z,60.44
2023-03-30T17:24:10.650Z,60.48
2023-03-30T17:26:37.357Z,60.84
2023-03-30T17:29:04.460Z,61.02
2023-03-30T17:31:31.433Z,60.51
2023-03-30T17:33:58.306Z,61.02
2023-03-30T17:36:26.536Z,60.65
2023-03-30T17:38:53.610Z,60.58
2023-03-30T17:41:20.730Z,60.66
2023-03-30T17:43:48.441Z,59.97
2023-03-30T17:46:17.231Z,60.58
2023-03-30T17:48:44.003Z,60.37
2023-03-30T17:51:10.634Z,60.41
2023-03-30T17:53:37.519Z,60.28
2023-03-30T17:56:04.455Z,60.43
2023-03-30T17:58:34.085Z,60.34
2023-03-30T18:01:02.642Z,60.66
2023-03-30T18:03:29.709Z,60.40
2023-03-30T18:05:57.720Z,60.70
2023-03-30T18:08:25.643Z,61.45
2023-03-30T18:11:03.251Z,61.14
2023-03-30T18:13:30.786Z,62.32
2023-03-30T18:15:58.966Z,62.76
2023-03-30T18:18:28.171Z,62.85
2023-03-30T18:21:03.352Z,63.44
2023-03-30T18:23:31.760Z,64.34
2023-03-30T18:25:58.285Z,65.26
2023-03-30T18:28:26.212Z,65.12
2023-03-30T18:30:55.628Z,65.88
2023-03-30T18:33:22.299Z,66.19
2023-03-30T18:35:51.356Z,66.23
2023-03-30T18:38:20.147Z,66.80
2023-03-30T18:40:49.502Z,67.17
2023-03-30T18:43:16.657Z,67.48
2023-03-30T18:45:46.250Z,67.47
2023-03-30T18:48:15.365Z,67.57
2023-03-30T18:50:46.651Z,68.13
2023-03-30T18:53:18.010Z,68.12
2023-03-30T18:55:46.575Z,68.69
2023-03-30T18:58:16.061Z,69.02
2023-03-30T19:00:42.923Z,69.22
2023-03-30T19:03:09.700Z,69.47
2023-03-30T19:05:36.831Z,70.25
2023-03-30T19:08:07.068Z,70.68
2023-03-30T19:10:39.254Z,70.80
2023-03-30T19:13:06.108Z,70.91
2023-03-30T19:15:35.027Z,71.45
2023-03-30T19:18:05.109Z,72.42
2023-03-30T19:20:34.509Z,72.34
2023-03-30T19:23:01.201Z,72.74
2023-03-30T19:25:28.499Z,72.96
2023-03-30T19:28:03.376Z,73.41
2023-03-30T19:30:33.269Z,73.69
2023-03-30T19:33:03.249Z,74.09
2023-03-30T19:35:30.595Z,74.47
2023-03-30T19:37:57.439Z,74.29
